sensor_id;sensor_type;location;lat;lon;timestamp;P1;durP1;ratioP1;P2;durP2;ratioP2
5650;SDS011;40241;52.684;9.758;2023-03-01T00:00:38;10.10;;;5.90;;
5650;SDS011;40241;52.684;9.758;2023-03-01T00:03:03;8.63;;;4.80;;
5650;SDS011;40241;52.684;9.758;2023-03-01T00:05:29;11.40;;;6.87;;
5650;SDS011;40241;52.684;9.758;2023-03-01T00:07:54;24.60;;;11.33;;
5650;SDS011;40241;52.684;9.758;2023-03-01T00:10:20;26.53;;;14.53;;
5650;SDS011;40241;52.684;9.758;2023-03-01T00:12:45;23.23;;;13.13;;
5650;SDS011;40241;52.684;9.758;2023-03-01T00:15:10;26.07;;;10.80;;
5650;SDS011;40241;52.684;9.758;2023-03-01T00:17:36;15.97;;;9.60;;
5650;SDS011;40241;52.684;9.758;2023-03-01T00:20:02;20.57;;;12.07;;
5650;SDS011;40241;52.684;9.758;2023-03-01T00:22:27;15.70;;;9.20;;
5650;SDS011;40241;52.684;9.758;2023-03-01T00:24:55;11.23;;;6.63;;
5650;SDS011;40241;52.684;9.758;2023-03-01T00:27:21;11.27;;;6.87;;
5650;SDS011;40241;52.684;9.758;2023-03-01T00:29:46;9.60;;;5.50;;
5650;SDS011;40241;52.684;9.758;2023-03-01T00:32:11;7.87;;;5.13;;
5650;SDS011;40241;52.684;9.758;2023-03-01T00:34:37;7.57;;;4.77;;
5650;SDS011;40241;52.684;9.758;2023-03-01T00:37:02;6.30;;;3.93;;
5650;SDS011;40241;52.684;9.758;2023-03-01T00:39:30;8.27;;;5.13;;
5650;SDS011;40241;52.684;9.758;2023-03-01T00:41:56;10.60;;;5.90;;
5650;SDS011;40241;52.684;9.758;2023-03-01T00:44:21;12.03;;;7.00;;
5650;SDS011;40241;52.684;9.758;2023-03-01T00:46:46;15.00;;;9.03;;
5650;SDS011;40241;52.684;9.758;2023-03-01T00:49:12;15.00;;;8.20;;
5650;SDS011;40241;52.684;9.758;2023-03-01T00:51:38;10.10;;;6.00;;
5650;SDS011;40241;52.684;9.758;2023-03-01T00:54:07;6.90;;;4.20;;
5650;SDS011;40241;52.684;9.758;2023-03-01T00:56:33;5.03;;;3.97;;
5650;SDS011;40241;52.684;9.758;2023-03-01T00:58:58;3.20;;;2.70;;
5650;SDS011;40241;52.684;9.758;2023-03-01T01:01:25;2.17;;;1.97;;
5650;SDS011;40241;52.684;9.758;2023-03-01T01:03:55;2.07;;;1.90;;
5650;SDS011;40241;52.684;9.758;2023-03-01T01:06:26;1.93;;;1.60;;
5650;SDS011;40241;52.684;9.758;2023-03-01T01:08:54;2.33;;;2.00;;
5650;SDS011;40241;52.684;9.758;2023-03-01T01:11:21;2.00;;;1.90;;
5650;SDS011;40241;52.684;9.758;2023-03-01T01:13:48;3.80;;;2.70;;
5650;SDS011;40241;52.684;9.758;2023-03-01T01:16:14;3.60;;;2.53;;
5650;SDS011;40241;52.684;9.758;2023-03-01T01:18:41;3.40;;;2.30;;
5650;SDS011;40241;52.684;9.758;2023-03-01T01:21:10;4.13;;;2.40;;
5650;SDS011;40241;52.684;9.758;2023-03-01T01:23:38;3.70;;;2.13;;
5650;SDS011;40241;52.684;9.758;2023-03-01T01:26:37;3.20;;;2.57;;
5650;SDS011;40241;52.684;9.758;2023-03-01T01:28:57;3.80;;;2.30;;
5650;SDS011;40241;52.684;9.758;2023-03-01T01:31:23;3.60;;;2.30;;
5650;SDS011;40241;52.684;9.758;2023-03-01T01:33:49;2.40;;;2.20;;
5650;SDS011;40241;52.684;9.758;2023-03-01T01:36:15;2.40;;;2.00;;
5650;SDS011;40241;52.684;9.758;2023-03-01T01:38:41;1.97;;;1.87;;
5650;SDS011;40241;52.684;9.758;2023-03-01T01:41:07;2.40;;;1.70;;
5650;SDS011;40241;52.684;9.758;2023-03-01T01:43:37;2.10;;;1.80;;
5650;SDS011;40241;52.684;9.758;2023-03-01T01:48:42;2.00;;;1.60;;
5650;SDS011;40241;52.684;9.758;2023-03-01T01:51:20;2.30;;;1.67;;
5650;SDS011;40241;52.684;9.758;2023-03-01T01:53:51;1.33;;;1.20;;
5650;SDS011;40241;52.684;9.758;2023-03-01T01:56:20;1.50;;;1.40;;
5650;SDS011;40241;52.684;9.758;2023-03-01T01:58:48;1.20;;;1.10;;
5650;SDS011;40241;52.684;9.758;2023-03-01T02:01:14;1.70;;;1.60;;
5650;SDS011;40241;52.684;9.758;2023-03-01T02:03:40;2.07;;;1.43;;
5650;SDS011;40241;52.684;9.758;2023-03-01T02:06:15;2.83;;;1.70;;
5650;SDS011;40241;52.684;9.758;2023-03-01T02:08:47;1.43;;;1.33;;
5650;SDS011;40241;52.684;9.758;2023-03-01T02:11:15;1.70;;;1.60;;
5650;SDS011;40241;52.684;9.758;2023-03-01T02:13:42;1.20;;;1.10;;
5650;SDS011;40241;52.684;9.758;2023-03-01T02:16:08;1.97;;;1.30;;
5650;SDS011;40241;52.684;9.758;2023-03-01T02:18:36;1.33;;;1.27;;
5650;SDS011;40241;52.684;9.758;2023-03-01T02:23:59;1.57;;;1.47;;
5650;SDS011;40241;52.684;9.758;2023-03-01T02:26:34;1.50;;;1.40;;
5650;SDS011;40241;52.684;9.758;2023-03-01T02:29:05;1.37;;;1.27;;
5650;SDS011;40241;52.684;9.758;2023-03-01T02:31:31;1.63;;;1.30;;
5650;SDS011;40241;52.684;9.758;2023-03-01T02:34:13;2.20;;;1.40;;
5650;SDS011;40241;52.684;9.758;2023-03-01T02:36:46;2.27;;;1.70;;
5650;SDS011;40241;52.684;9.758;2023-03-01T02:39:18;1.60;;;1.47;;
5650;SDS011;40241;52.684;9.758;2023-03-01T02:41:50;1.63;;;1.53;;
5650;SDS011;40241;52.684;9.758;2023-03-01T02:44:19;2.03;;;1.40;;
5650;SDS011;40241;52.684;9.758;2023-03-01T02:46:52;1.20;;;1.10;;
5650;SDS011;40241;52.684;9.758;2023-03-01T02:57:17;2.23;;;1.50;;
5650;SDS011;40241;52.684;9.758;2023-03-01T02:59:44;2.00;;;1.50;;
5650;SDS011;40241;52.684;9.758;2023-03-01T03:02:23;1.73;;;1.63;;
5650;SDS011;40241;52.684;9.758;2023-03-01T03:05:03;2.50;;;1.30;;
5650;SDS011;40241;52.684;9.758;2023-03-01T03:07:41;1.43;;;1.33;;
5650;SDS011;40241;52.684;9.758;2023-03-01T03:10:09;1.77;;;1.37;;
5650;SDS011;40241;52.684;9.758;2023-03-01T03:12:36;1.70;;;1.60;;
5650;SDS011;40241;52.684;9.758;2023-03-01T03:15:03;1.73;;;1.40;;
5650;SDS011;40241;52.684;9.758;2023-03-01T03:17:33;1.53;;;1.43;;
5650;SDS011;40241;52.684;9.758;2023-03-01T03:20:03;2.47;;;1.53;;
5650;SDS011;40241;52.684;9.758;2023-03-01T03:22:29;1.77;;;1.30;;
5650;SDS011;40241;52.684;9.758;2023-03-01T03:24:55;1.23;;;1.10;;
5650;SDS011;40241;52.684;9.758;2023-03-01T03:27:21;1.57;;;1.47;;
5650;SDS011;40241;52.684;9.758;2023-03-01T03:29:46;2.57;;;2.30;;
5650;SDS011;40241;52.684;9.758;2023-03-01T03:32:11;1.40;;;1.30;;
5650;SDS011;40241;52.684;9.758;2023-03-01T03:34:36;1.17;;;1.17;;
5650;SDS011;40241;52.684;9.758;2023-03-01T03:37:02;1.37;;;1.20;;
5650;SDS011;40241;52.684;9.758;2023-03-01T03:39:27;1.53;;;1.43;;
5650;SDS011;40241;52.684;9.758;2023-03-01T03:41:54;2.07;;;1.60;;
5650;SDS011;40241;52.684;9.758;2023-03-01T03:44:21;4.37;;;1.97;;
5650;SDS011;40241;52.684;9.758;2023-03-01T03:46:46;1.67;;;1.40;;
5650;SDS011;40241;52.684;9.758;2023-03-01T03:49:11;1.87;;;1.43;;
5650;SDS011;40241;52.684;9.758;2023-03-01T03:51:37;1.40;;;1.30;;
5650;SDS011;40241;52.684;9.758;2023-03-01T03:54:02;1.63;;;1.53;;
5650;SDS011;40241;52.684;9.758;2023-03-01T03:56:27;2.50;;;1.60;;
5650;SDS011;40241;52.684;9.758;2023-03-01T03:58:53;1.50;;;1.40;;
5650;SDS011;40241;52.684;9.758;2023-03-01T04:01:18;1.40;;;1.30;;
5650;SDS011;40241;52.684;9.758;2023-03-01T04:03:44;1.47;;;1.40;;
5650;SDS011;40241;52.684;9.758;2023-03-01T04:06:11;1.97;;;1.60;;
5650;SDS011;40241;52.684;9.758;2023-03-01T04:08:39;1.70;;;1.60;;
5650;SDS011;40241;52.684;9.758;2023-03-01T04:11:05;1.40;;;1.27;;
5650;SDS011;40241;52.684;9.758;2023-03-01T04:13:51;3.33;;;1.90;;
5650;SDS011;40241;52.684;9.758;2023-03-01T04:16:17;2.80;;;1.60;;
5650;SDS011;40241;52.684;9.758;2023-03-01T04:18:43;1.70;;;1.60;;
5650;SDS011;40241;52.684;9.758;2023-03-01T04:21:09;1.30;;;1.20;;
5650;SDS011;40241;52.684;9.758;2023-03-01T04:23:36;2.00;;;1.80;;
5650;SDS011;40241;52.684;9.758;2023-03-01T04:26:02;2.53;;;1.50;;
5650;SDS011;40241;52.684;9.758;2023-03-01T04:30:55;1.60;;;1.50;;
5650;SDS011;40241;52.684;9.758;2023-03-01T04:33:22;2.50;;;1.70;;
5650;SDS011;40241;52.684;9.758;2023-03-01T04:35:49;2.30;;;1.40;;
5650;SDS011;40241;52.684;9.758;2023-03-01T04:38:21;2.30;;;2.10;;
5650;SDS011;40241;52.684;9.758;2023-03-01T04:40:46;3.20;;;1.63;;
5650;SDS011;40241;52.684;9.758;2023-03-01T04:43:12;2.50;;;1.83;;
5650;SDS011;40241;52.684;9.758;2023-03-01T04:45:41;1.40;;;1.30;;
5650;SDS011;40241;52.684;9.758;2023-03-01T04:48:06;1.73;;;1.53;;
5650;SDS011;40241;52.684;9.758;2023-03-01T04:50:32;2.23;;;1.70;;
5650;SDS011;40241;52.684;9.758;2023-03-01T04:52:57;1.93;;;1.83;;
5650;SDS011;40241;52.684;9.758;2023-03-01T04:55:24;1.80;;;1.70;;
5650;SDS011;40241;52.684;9.758;2023-03-01T04:57:52;1.73;;;1.63;;
5650;SDS011;40241;52.684;9.758;2023-03-01T05:00:19;2.23;;;1.57;;
5650;SDS011;40241;52.684;9.758;2023-03-01T05:02:52;1.90;;;1.70;;
5650;SDS011;40241;52.684;9.758;2023-03-01T05:05:24;1.50;;;1.40;;
5650;SDS011;40241;52.684;9.758;2023-03-01T05:07:52;2.03;;;1.50;;
5650;SDS011;40241;52.684;9.758;2023-03-01T05:10:19;5.87;;;1.50;;
5650;SDS011;40241;52.684;9.758;2023-03-01T05:12:44;1.77;;;1.67;;
5650;SDS011;40241;52.684;9.758;2023-03-01T05:15:10;3.37;;;1.47;;
5650;SDS011;40241;52.684;9.758;2023-03-01T05:17:35;2.07;;;1.90;;
5650;SDS011;40241;52.684;9.758;2023-03-01T05:20:01;2.50;;;1.80;;
5650;SDS011;40241;52.684;9.758;2023-03-01T05:22:28;2.10;;;1.90;;
5650;SDS011;40241;52.684;9.758;2023-03-01T05:24:54;2.60;;;2.40;;
5650;SDS011;40241;52.684;9.758;2023-03-01T05:27:20;1.93;;;1.77;;
5650;SDS011;40241;52.684;9.758;2023-03-01T05:29:47;3.00;;;2.23;;
5650;SDS011;40241;52.684;9.758;2023-03-01T05:32:12;3.07;;;1.87;;
5650;SDS011;40241;52.684;9.758;2023-03-01T05:34:41;3.47;;;2.10;;
5650;SDS011;40241;52.684;9.758;2023-03-01T05:37:07;1.87;;;1.77;;
5650;SDS011;40241;52.684;9.758;2023-03-01T05:39:32;2.33;;;2.13;;
5650;SDS011;40241;52.684;9.758;2023-03-01T05:41:59;5.97;;;3.00;;
5650;SDS011;40241;52.684;9.758;2023-03-01T05:44:26;2.83;;;2.40;;
5650;SDS011;40241;52.684;9.758;2023-03-01T05:46:52;2.13;;;1.93;;
5650;SDS011;40241;52.684;9.758;2023-03-01T05:49:19;3.13;;;2.30;;
5650;SDS011;40241;52.684;9.758;2023-03-01T05:51:47;4.60;;;2.00;;
5650;SDS011;40241;52.684;9.758;2023-03-01T05:54:15;2.03;;;1.83;;
5650;SDS011;40241;52.684;9.758;2023-03-01T05:56:41;2.30;;;2.10;;
5650;SDS011;40241;52.684;9.758;2023-03-01T05:59:06;2.77;;;2.43;;
5650;SDS011;40241;52.684;9.758;2023-03-01T06:01:32;1.50;;;1.40;;
5650;SDS011;40241;52.684;9.758;2023-03-01T06:03:57;4.50;;;1.97;;
5650;SDS011;40241;52.684;9.758;2023-03-01T06:06:23;2.27;;;1.97;;
5650;SDS011;40241;52.684;9.758;2023-03-01T06:08:50;3.27;;;1.70;;
5650;SDS011;40241;52.684;9.758;2023-03-01T06:11:15;2.77;;;2.50;;
5650;SDS011;40241;52.684;9.758;2023-03-01T06:13:44;4.57;;;1.70;;
5650;SDS011;40241;52.684;9.758;2023-03-01T06:16:09;2.60;;;1.60;;
5650;SDS011;40241;52.684;9.758;2023-03-01T06:18:36;2.70;;;2.47;;
5650;SDS011;40241;52.684;9.758;2023-03-01T06:21:02;2.10;;;2.00;;
5650;SDS011;40241;52.684;9.758;2023-03-01T06:23:28;2.90;;;2.13;;
5650;SDS011;40241;52.684;9.758;2023-03-01T06:25:53;3.13;;;1.90;;
5650;SDS011;40241;52.684;9.758;2023-03-01T06:28:19;2.30;;;2.10;;
5650;SDS011;40241;52.684;9.758;2023-03-01T06:30:44;2.40;;;1.87;;
5650;SDS011;40241;52.684;9.758;2023-03-01T06:33:09;2.70;;;2.10;;
5650;SDS011;40241;52.684;9.758;2023-03-01T06:35:35;2.20;;;2.00;;
5650;SDS011;40241;52.684;9.758;2023-03-01T06:38:01;2.13;;;1.93;;
5650;SDS011;40241;52.684;9.758;2023-03-01T06:40:28;3.57;;;2.20;;
5650;SDS011;40241;52.684;9.758;2023-03-01T06:42:55;2.90;;;2.10;;
5650;SDS011;40241;52.684;9.758;2023-03-01T06:45:21;5.90;;;2.20;;
5650;SDS011;40241;52.684;9.758;2023-03-01T06:47:47;1.50;;;1.40;;
5650;SDS011;40241;52.684;9.758;2023-03-01T06:50:12;1.80;;;1.70;;
5650;SDS011;40241;52.684;9.758;2023-03-01T06:52:38;1.63;;;1.53;;
5650;SDS011;40241;52.684;9.758;2023-03-01T06:55:04;3.20;;;2.40;;
5650;SDS011;40241;52.684;9.758;2023-03-01T06:57:30;1.87;;;1.77;;
5650;SDS011;40241;52.684;9.758;2023-03-01T06:59:55;3.30;;;2.30;;
5650;SDS011;40241;52.684;9.758;2023-03-01T07:02:20;2.80;;;2.10;;
5650;SDS011;40241;52.684;9.758;2023-03-01T07:04:46;2.03;;;1.83;;
5650;SDS011;40241;52.684;9.758;2023-03-01T07:07:14;1.83;;;1.73;;
5650;SDS011;40241;52.684;9.758;2023-03-01T07:09:39;2.33;;;2.07;;
5650;SDS011;40241;52.684;9.758;2023-03-01T07:12:04;3.50;;;2.00;;
5650;SDS011;40241;52.684;9.758;2023-03-01T07:14:30;3.10;;;2.70;;
5650;SDS011;40241;52.684;9.758;2023-03-01T07:16:55;2.27;;;2.07;;
5650;SDS011;40241;52.684;9.758;2023-03-01T07:19:21;2.50;;;2.17;;
5650;SDS011;40241;52.684;9.758;2023-03-01T07:21:47;2.33;;;2.13;;
5650;SDS011;40241;52.684;9.758;2023-03-01T07:24:12;2.27;;;2.07;;
5650;SDS011;40241;52.684;9.758;2023-03-01T07:26:38;1.97;;;1.87;;
5650;SDS011;40241;52.684;9.758;2023-03-01T07:29:04;2.67;;;2.47;;
5650;SDS011;40241;52.684;9.758;2023-03-01T07:31:30;2.93;;;2.27;;
5650;SDS011;40241;52.684;9.758;2023-03-01T07:33:56;3.03;;;2.30;;
5650;SDS011;40241;52.684;9.758;2023-03-01T07:36:21;2.23;;;2.00;;
5650;SDS011;40241;52.684;9.758;2023-03-01T07:38:48;2.97;;;2.33;;
5650;SDS011;40241;52.684;9.758;2023-03-01T07:41:13;3.03;;;2.40;;
5650;SDS011;40241;52.684;9.758;2023-03-01T07:43:39;3.47;;;2.70;;
5650;SDS011;40241;52.684;9.758;2023-03-01T07:46:04;4.20;;;3.17;;
5650;SDS011;40241;52.684;9.758;2023-03-01T07:48:30;2.63;;;2.30;;
5650;SDS011;40241;52.684;9.758;2023-03-01T07:51:00;3.47;;;2.87;;
5650;SDS011;40241;52.684;9.758;2023-03-01T07:53:26;2.60;;;2.37;;
5650;SDS011;40241;52.684;9.758;2023-03-01T07:56:06;3.20;;;2.90;;
5650;SDS011;40241;52.684;9.758;2023-03-01T07:58:40;3.37;;;2.90;;
5650;SDS011;40241;52.684;9.758;2023-03-01T08:01:08;2.40;;;2.20;;
5650;SDS011;40241;52.684;9.758;2023-03-01T08:03:35;3.00;;;2.53;;
5650;SDS011;40241;52.684;9.758;2023-03-01T08:06:02;2.50;;;2.30;;
5650;SDS011;40241;52.684;9.758;2023-03-01T08:08:29;2.17;;;2.00;;
5650;SDS011;40241;52.684;9.758;2023-03-01T08:10:59;2.40;;;2.20;;
5650;SDS011;40241;52.684;9.758;2023-03-01T08:13:25;2.80;;;2.50;;
5650;SDS011;40241;52.684;9.758;2023-03-01T08:15:51;2.60;;;2.30;;
5650;SDS011;40241;52.684;9.758;2023-03-01T08:18:17;2.60;;;2.40;;
5650;SDS011;40241;52.684;9.758;2023-03-01T08:20:43;3.60;;;2.73;;
5650;SDS011;40241;52.684;9.758;2023-03-01T08:23:09;3.10;;;2.30;;
5650;SDS011;40241;52.684;9.758;2023-03-01T08:25:35;4.23;;;3.47;;
5650;SDS011;40241;52.684;9.758;2023-03-01T08:28:00;5.03;;;3.50;;
5650;SDS011;40241;52.684;9.758;2023-03-01T08:30:25;4.13;;;3.20;;
5650;SDS011;40241;52.684;9.758;2023-03-01T08:32:51;5.40;;;3.30;;
5650;SDS011;40241;52.684;9.758;2023-03-01T08:35:16;4.00;;;3.47;;
5650;SDS011;40241;52.684;9.758;2023-03-01T08:37:42;4.63;;;3.90;;
5650;SDS011;40241;52.684;9.758;2023-03-01T08:40:09;7.90;;;4.23;;
5650;SDS011;40241;52.684;9.758;2023-03-01T08:42:35;5.40;;;3.43;;
5650;SDS011;40241;52.684;9.758;2023-03-01T08:45:01;4.43;;;3.50;;
5650;SDS011;40241;52.684;9.758;2023-03-01T08:47:27;4.73;;;3.83;;
5650;SDS011;40241;52.684;9.758;2023-03-01T08:49:53;4.87;;;3.80;;
5650;SDS011;40241;52.684;9.758;2023-03-01T08:52:19;3.80;;;3.40;;
5650;SDS011;40241;52.684;9.758;2023-03-01T08:54:45;4.37;;;3.47;;
5650;SDS011;40241;52.684;9.758;2023-03-01T08:57:12;5.63;;;3.90;;
5650;SDS011;40241;52.684;9.758;2023-03-01T08:59:38;4.73;;;3.77;;
5650;SDS011;40241;52.684;9.758;2023-03-01T09:02:04;4.60;;;3.67;;
5650;SDS011;40241;52.684;9.758;2023-03-01T09:04:30;6.17;;;4.00;;
5650;SDS011;40241;52.684;9.758;2023-03-01T09:06:56;4.07;;;3.67;;
5650;SDS011;40241;52.684;9.758;2023-03-01T09:09:21;5.67;;;3.90;;
5650;SDS011;40241;52.684;9.758;2023-03-01T09:11:47;4.73;;;3.30;;
5650;SDS011;40241;52.684;9.758;2023-03-01T09:14:14;5.67;;;2.87;;
5650;SDS011;40241;52.684;9.758;2023-03-01T09:16:40;3.93;;;2.97;;
5650;SDS011;40241;52.684;9.758;2023-03-01T09:19:05;5.33;;;3.37;;
5650;SDS011;40241;52.684;9.758;2023-03-01T09:21:31;7.73;;;3.70;;
5650;SDS011;40241;52.684;9.758;2023-03-01T09:23:57;6.57;;;3.50;;
5650;SDS011;40241;52.684;9.758;2023-03-01T09:26:23;3.10;;;2.80;;
5650;SDS011;40241;52.684;9.758;2023-03-01T09:28:50;4.23;;;3.43;;
5650;SDS011;40241;52.684;9.758;2023-03-01T09:31:18;3.73;;;3.20;;
5650;SDS011;40241;52.684;9.758;2023-03-01T09:33:48;2.73;;;2.53;;
5650;SDS011;40241;52.684;9.758;2023-03-01T09:36:18;2.67;;;2.47;;
5650;SDS011;40241;52.684;9.758;2023-03-01T09:38:45;3.47;;;1.90;;
5650;SDS011;40241;52.684;9.758;2023-03-01T09:43:44;2.43;;;1.90;;
5650;SDS011;40241;52.684;9.758;2023-03-01T09:46:13;2.60;;;2.23;;
5650;SDS011;40241;52.684;9.758;2023-03-01T09:48:42;2.43;;;1.90;;
5650;SDS011;40241;52.684;9.758;2023-03-01T09:51:21;2.33;;;2.03;;
5650;SDS011;40241;52.684;9.758;2023-03-01T09:53:51;2.00;;;1.80;;
5650;SDS011;40241;52.684;9.758;2023-03-01T09:56:20;2.20;;;2.00;;
5650;SDS011;40241;52.684;9.758;2023-03-01T10:01:35;1.90;;;1.80;;
5650;SDS011;40241;52.684;9.758;2023-03-01T10:04:24;1.90;;;1.33;;
5650;SDS011;40241;52.684;9.758;2023-03-01T10:06:59;1.90;;;1.63;;
5650;SDS011;40241;52.684;9.758;2023-03-01T10:09:28;1.87;;;1.50;;
5650;SDS011;40241;52.684;9.758;2023-03-01T10:11:57;1.50;;;1.40;;
5650;SDS011;40241;52.684;9.758;2023-03-01T10:14:30;2.20;;;1.50;;
5650;SDS011;40241;52.684;9.758;2023-03-01T10:17:12;1.03;;;0.87;;
5650;SDS011;40241;52.684;9.758;2023-03-01T10:22:49;5.23;;;1.57;;
5650;SDS011;40241;52.684;9.758;2023-03-01T10:25:25;1.47;;;1.13;;
5650;SDS011;40241;52.684;9.758;2023-03-01T10:28:22;1.67;;;1.20;;
5650;SDS011;40241;52.684;9.758;2023-03-01T10:31:11;5.53;;;1.73;;
5650;SDS011;40241;52.684;9.758;2023-03-01T10:33:39;1.63;;;1.10;;
5650;SDS011;40241;52.684;9.758;2023-03-01T10:36:06;1.53;;;1.43;;
5650;SDS011;40241;52.684;9.758;2023-03-01T10:38:33;1.47;;;1.37;;
5650;SDS011;40241;52.684;9.758;2023-03-01T10:41:13;4.03;;;1.27;;
5650;SDS011;40241;52.684;9.758;2023-03-01T10:43:46;1.57;;;1.10;;
5650;SDS011;40241;52.684;9.758;2023-03-01T10:51:42;2.93;;;1.30;;
5650;SDS011;40241;52.684;9.758;2023-03-01T10:54:19;1.70;;;1.60;;
5650;SDS011;40241;52.684;9.758;2023-03-01T10:56:47;2.77;;;1.47;;
5650;SDS011;40241;52.684;9.758;2023-03-01T10:59:21;1.60;;;1.50;;
5650;SDS011;40241;52.684;9.758;2023-03-01T11:05:01;4.07;;;0.97;;
5650;SDS011;40241;52.684;9.758;2023-03-01T11:07:48;2.43;;;1.60;;
5650;SDS011;40241;52.684;9.758;2023-03-01T11:10:23;4.53;;;1.60;;
5650;SDS011;40241;52.684;9.758;2023-03-01T11:15:41;2.27;;;1.10;;
5650;SDS011;40241;52.684;9.758;2023-03-01T11:18:20;1.70;;;1.10;;
5650;SDS011;40241;52.684;9.758;2023-03-01T11:20:46;2.20;;;1.13;;
5650;SDS011;40241;52.684;9.758;2023-03-01T11:23:14;5.63;;;1.50;;
5650;SDS011;40241;52.684;9.758;2023-03-01T11:26:02;2.23;;;1.30;;
5650;SDS011;40241;52.684;9.758;2023-03-01T11:28:29;1.20;;;1.10;;
5650;SDS011;40241;52.684;9.758;2023-03-01T11:31:05;1.73;;;1.50;;
5650;SDS011;40241;52.684;9.758;2023-03-01T11:41:44;1.10;;;0.87;;
5650;SDS011;40241;52.684;9.758;2023-03-01T11:44:21;1.30;;;1.17;;
5650;SDS011;40241;52.684;9.758;2023-03-01T11:47:12;0.80;;;0.73;;
5650;SDS011;40241;52.684;9.758;2023-03-01T12:00:41;1.13;;;1.03;;
5650;SDS011;40241;52.684;9.758;2023-03-01T12:08:58;2.50;;;0.90;;
5650;SDS011;40241;52.684;9.758;2023-03-01T12:17:34;1.17;;;0.80;;
5650;SDS011;40241;52.684;9.758;2023-03-01T12:20:27;0.70;;;0.70;;
5650;SDS011;40241;52.684;9.758;2023-03-01T12:34:07;2.57;;;1.20;;
5650;SDS011;40241;52.684;9.758;2023-03-01T12:53:17;7.27;;;4.77;;
5650;SDS011;40241;52.684;9.758;2023-03-01T12:55:48;13.37;;;9.27;;
5650;SDS011;40241;52.684;9.758;2023-03-01T12:58:28;5.17;;;4.60;;
5650;SDS011;40241;52.684;9.758;2023-03-01T13:01:00;2.20;;;2.00;;
5650;SDS011;40241;52.684;9.758;2023-03-01T13:08:47;0.70;;;0.70;;
5650;SDS011;40241;52.684;9.758;2023-03-01T13:11:32;0.83;;;0.83;;
5650;SDS011;40241;52.684;9.758;2023-03-01T13:16:47;1.20;;;0.63;;
5650;SDS011;40241;52.684;9.758;2023-03-01T13:21:46;0.67;;;0.67;;
5650;SDS011;40241;52.684;9.758;2023-03-01T13:32:31;0.80;;;0.80;;
5650;SDS011;40241;52.684;9.758;2023-03-01T13:37:41;0.80;;;0.80;;
5650;SDS011;40241;52.684;9.758;2023-03-01T13:42:42;1.37;;;0.60;;
5650;SDS011;40241;52.684;9.758;2023-03-01T13:45:53;1.00;;;0.90;;
5650;SDS011;40241;52.684;9.758;2023-03-01T13:48:23;1.20;;;0.77;;
5650;SDS011;40241;52.684;9.758;2023-03-01T13:50:53;1.13;;;0.80;;
5650;SDS011;40241;52.684;9.758;2023-03-01T13:53:23;1.00;;;0.83;;
5650;SDS011;40241;52.684;9.758;2023-03-01T13:55:52;1.37;;;1.10;;
5650;SDS011;40241;52.684;9.758;2023-03-01T13:58:23;1.03;;;1.00;;
5650;SDS011;40241;52.684;9.758;2023-03-01T14:00:55;1.00;;;0.90;;
5650;SDS011;40241;52.684;9.758;2023-03-01T14:03:32;1.07;;;0.97;;
5650;SDS011;40241;52.684;9.758;2023-03-01T14:08:32;2.73;;;0.90;;
5650;SDS011;40241;52.684;9.758;2023-03-01T14:13:43;1.23;;;1.13;;
5650;SDS011;40241;52.684;9.758;2023-03-01T14:21:58;1.10;;;1.00;;
5650;SDS011;40241;52.684;9.758;2023-03-01T14:24:29;1.50;;;1.40;;
5650;SDS011;40241;52.684;9.758;2023-03-01T14:26:58;1.10;;;1.00;;
5650;SDS011;40241;52.684;9.758;2023-03-01T14:29:26;1.40;;;0.93;;
5650;SDS011;40241;52.684;9.758;2023-03-01T14:32:08;0.70;;;0.70;;
5650;SDS011;40241;52.684;9.758;2023-03-01T14:34:34;0.70;;;0.70;;
5650;SDS011;40241;52.684;9.758;2023-03-01T14:37:19;1.30;;;1.00;;
5650;SDS011;40241;52.684;9.758;2023-03-01T14:39:48;0.87;;;0.60;;
5650;SDS011;40241;52.684;9.758;2023-03-01T14:42:14;0.67;;;0.67;;
5650;SDS011;40241;52.684;9.758;2023-03-01T14:44:45;0.63;;;0.63;;
5650;SDS011;40241;52.684;9.758;2023-03-01T14:47:14;1.63;;;0.70;;
5650;SDS011;40241;52.684;9.758;2023-03-01T14:49:44;1.73;;;0.80;;
5650;SDS011;40241;52.684;9.758;2023-03-01T14:52:24;0.57;;;0.57;;
5650;SDS011;40241;52.684;9.758;2023-03-01T14:54:58;0.60;;;0.60;;
5650;SDS011;40241;52.684;9.758;2023-03-01T14:57:25;1.00;;;0.60;;
5650;SDS011;40241;52.684;9.758;2023-03-01T14:59:52;0.80;;;0.60;;
5650;SDS011;40241;52.684;9.758;2023-03-01T15:02:20;0.60;;;0.60;;
5650;SDS011;40241;52.684;9.758;2023-03-01T15:04:49;2.53;;;0.50;;
5650;SDS011;40241;52.684;9.758;2023-03-01T15:07:17;0.90;;;0.50;;
5650;SDS011;40241;52.684;9.758;2023-03-01T15:09:44;0.90;;;0.50;;
5650;SDS011;40241;52.684;9.758;2023-03-01T15:14:50;0.60;;;0.60;;
5650;SDS011;40241;52.684;9.758;2023-03-01T15:17:34;0.93;;;0.67;;
5650;SDS011;40241;52.684;9.758;2023-03-01T15:20:02;0.97;;;0.80;;
5650;SDS011;40241;52.684;9.758;2023-03-01T15:22:30;0.70;;;0.63;;
5650;SDS011;40241;52.684;9.758;2023-03-01T15:24:56;2.20;;;0.90;;
5650;SDS011;40241;52.684;9.758;2023-03-01T15:27:23;0.60;;;0.60;;
5650;SDS011;40241;52.684;9.758;2023-03-01T15:29:52;0.50;;;0.50;;
5650;SDS011;40241;52.684;9.758;2023-03-01T15:34:56;0.70;;;0.60;;
5650;SDS011;40241;52.684;9.758;2023-03-01T15:42:45;0.80;;;0.50;;
5650;SDS011;40241;52.684;9.758;2023-03-01T15:45:19;0.80;;;0.70;;
5650;SDS011;40241;52.684;9.758;2023-03-01T15:47:47;0.63;;;0.63;;
5650;SDS011;40241;52.684;9.758;2023-03-01T15:50:25;0.90;;;0.70;;
5650;SDS011;40241;52.684;9.758;2023-03-01T15:52:53;0.63;;;0.50;;
5650;SDS011;40241;52.684;9.758;2023-03-01T15:55:20;1.57;;;0.57;;
5650;SDS011;40241;52.684;9.758;2023-03-01T15:57:47;0.70;;;0.50;;
5650;SDS011;40241;52.684;9.758;2023-03-01T16:00:14;0.73;;;0.60;;
5650;SDS011;40241;52.684;9.758;2023-03-01T16:02:41;0.80;;;0.80;;
5650;SDS011;40241;52.684;9.758;2023-03-01T16:07:46;0.83;;;0.83;;
5650;SDS011;40241;52.684;9.758;2023-03-01T16:10:12;1.03;;;0.90;;
5650;SDS011;40241;52.684;9.758;2023-03-01T16:12:38;0.80;;;0.80;;
5650;SDS011;40241;52.684;9.758;2023-03-01T16:15:04;0.70;;;0.70;;
5650;SDS011;40241;52.684;9.758;2023-03-01T16:17:36;0.63;;;0.63;;
5650;SDS011;40241;52.684;9.758;2023-03-01T16:20:02;0.70;;;0.70;;
5650;SDS011;40241;52.684;9.758;2023-03-01T16:22:28;2.03;;;0.70;;
5650;SDS011;40241;52.684;9.758;2023-03-01T16:24:54;0.50;;;0.40;;
5650;SDS011;40241;52.684;9.758;2023-03-01T16:27:19;2.47;;;0.40;;
5650;SDS011;40241;52.684;9.758;2023-03-01T16:29:45;0.60;;;0.60;;
5650;SDS011;40241;52.684;9.758;2023-03-01T16:32:10;1.07;;;0.60;;
5650;SDS011;40241;52.684;9.758;2023-03-01T16:34:36;1.00;;;0.77;;
5650;SDS011;40241;52.684;9.758;2023-03-01T16:37:01;0.60;;;0.50;;
5650;SDS011;40241;52.684;9.758;2023-03-01T16:39:26;0.70;;;0.70;;
5650;SDS011;40241;52.684;9.758;2023-03-01T16:41:51;0.73;;;0.50;;
5650;SDS011;40241;52.684;9.758;2023-03-01T16:44:17;0.50;;;0.50;;
5650;SDS011;40241;52.684;9.758;2023-03-01T16:46:42;0.50;;;0.50;;
5650;SDS011;40241;52.684;9.758;2023-03-01T16:49:08;0.90;;;0.50;;
5650;SDS011;40241;52.684;9.758;2023-03-01T16:51:34;0.70;;;0.40;;
5650;SDS011;40241;52.684;9.758;2023-03-01T16:54:00;0.50;;;0.40;;
5650;SDS011;40241;52.684;9.758;2023-03-01T16:56:26;0.50;;;0.47;;
5650;SDS011;40241;52.684;9.758;2023-03-01T16:58:52;0.50;;;0.37;;
5650;SDS011;40241;52.684;9.758;2023-03-01T17:01:19;2.40;;;0.40;;
5650;SDS011;40241;52.684;9.758;2023-03-01T17:03:45;0.60;;;0.50;;
5650;SDS011;40241;52.684;9.758;2023-03-01T17:06:13;0.60;;;0.50;;
5650;SDS011;40241;52.684;9.758;2023-03-01T17:08:40;0.80;;;0.53;;
5650;SDS011;40241;52.684;9.758;2023-03-01T17:11:07;0.60;;;0.60;;
5650;SDS011;40241;52.684;9.758;2023-03-01T17:13:34;0.73;;;0.60;;
5650;SDS011;40241;52.684;9.758;2023-03-01T17:16:02;0.70;;;0.50;;
5650;SDS011;40241;52.684;9.758;2023-03-01T17:18:29;1.23;;;0.40;;
5650;SDS011;40241;52.684;9.758;2023-03-01T17:20:54;0.50;;;0.40;;
5650;SDS011;40241;52.684;9.758;2023-03-01T17:23:20;0.60;;;0.50;;
5650;SDS011;40241;52.684;9.758;2023-03-01T17:25:46;1.53;;;0.70;;
5650;SDS011;40241;52.684;9.758;2023-03-01T17:28:12;0.60;;;0.60;;
5650;SDS011;40241;52.684;9.758;2023-03-01T17:30:40;0.47;;;0.40;;